Time;durP1;ratioP1;P1;durP2;ratioP2;P2;SDS_P1;SDS_P2;PMS_P1;PMS_P2;Temp;Humidity;BMP_temperature;BMP_pressure;BME280_temperature;BME280_humidity;BME280_pressure;Samples;Min_cycle;Max_cycle;Signal;HPM_P1;HPM_P2
2022/12/03 00:00:27;;;;;;;;;;;5.10;99.90;;;;;;5017406;28;1965;-62
2022/12/03 00:02:53;;;;;;;;;;;4.90;99.90;;;;;;5010153;28;1666;-62
2022/12/03 00:05:19;;;;;;;;;;;5.00;99.90;;;;;;5028341;28;1099;-62
2022/12/03 00:07:44;;;;;;;;;;;4.90;99.90;;;;;;5015877;28;1159;-62
2022/12/03 00:10:10;;;;;;;;;;;4.90;99.90;;;;;;5010437;28;1166;-63
2022/12/03 00:12:36;;;;;;;;;;;5.00;99.90;;;;;;5016317;28;1144;-62
2022/12/03 00:15:01;;;;;;;;;;;5.00;99.90;;;;;;5014859;28;1285;-62
2022/12/03 00:17:27;;;;;;;;;;;5.00;99.90;;;;;;5010421;28;1193;-62
2022/12/03 00:19:53;;;;;;;;;;;5.00;99.90;;;;;;5010688;28;1914;-62
2022/12/03 00:22:18;;;;;;;;;;;5.00;99.90;;;;;;5011457;28;1131;-62
2022/12/03 00:24:44;;;;;;;;;;;5.00;99.90;;;;;;5010276;28;1158;-62
2022/12/03 00:27:10;;;;;;;;;;;5.00;99.90;;;;;;5011105;28;1142;-62
2022/12/03 00:29:37;;;;;;;;;;;5.00;99.90;;;;;;4995253;28;1753;-62
2022/12/03 00:32:03;;;;;;;;;;;5.00;99.90;;;;;;5019428;28;1266;-62
2022/12/03 00:34:28;;;;;;;;;;;5.00;99.90;;;;;;5029689;28;1441;-62
2022/12/03 00:36:54;;;;;;;;;;;5.00;99.90;;;;;;5031009;28;1160;-62
2022/12/03 00:39:19;;;;;;;;;;;5.20;99.90;;;;;;5022751;28;1977;-62
2022/12/03 00:41:45;;;;;;;;;;;4.90;99.90;;;;;;5030477;28;975;-62
2022/12/03 00:44:11;;;;;;;;;;;4.90;99.90;;;;;;5030659;28;1074;-62
2022/12/03 00:46:36;;;;;;;;;;;4.90;99.90;;;;;;5016195;28;1530;-62
2022/12/03 00:49:02;;;;;;;;;;;4.90;99.90;;;;;;5023477;28;1185;-62
2022/12/03 00:51:27;;;;;;;;;;;4.90;99.90;;;;;;5016069;28;1144;-62
2022/12/03 00:53:53;;;;;;;;;;;4.90;99.90;;;;;;5009566;28;1110;-62
2022/12/03 00:56:19;;;;;;;;;;;4.90;99.90;;;;;;5010371;28;1138;-62
2022/12/03 00:58:44;;;;;;;;;;;5.10;99.90;;;;;;5009851;28;1110;-62
2022/12/03 01:01:10;;;;;;;;;;;4.90;99.90;;;;;;5009980;28;1973;-62
2022/12/03 01:03:36;;;;;;;;;;;4.90;99.90;;;;;;5010300;28;1553;-62
2022/12/03 01:06:02;;;;;;;;;;;4.90;99.90;;;;;;5011969;28;1129;-62
2022/12/03 01:08:28;;;;;;;;;;;4.90;99.90;;;;;;4992564;28;1163;-62
2022/12/03 01:10:53;;;;;;;;;;;4.90;99.90;;;;;;5010181;28;1012;-62
2022/12/03 01:13:19;;;;;;;;;;;4.90;99.90;;;;;;5009350;28;1204;-62
2022/12/03 01:15:44;;;;;;;;;;;4.90;99.90;;;;;;5029047;28;1705;-62
2022/12/03 01:18:10;;;;;;;;;;;4.90;99.90;;;;;;5029901;28;1054;-62
2022/12/03 01:20:37;;;;;;;;;;;4.90;99.90;;;;;;5028968;28;1969;-62
2022/12/03 01:23:03;;;;;;;;;;;5.00;99.90;;;;;;5017612;28;1118;-62
2022/12/03 01:25:29;;;;;;;;;;;4.80;99.90;;;;;;5028309;28;1182;-62
2022/12/03 01:27:55;;;;;;;;;;;4.80;99.90;;;;;;5029134;28;1090;-62
2022/12/03 01:30:21;;;;;;;;;;;4.70;99.90;;;;;;5029754;28;1169;-62
2022/12/03 01:32:46;;;;;;;;;;;4.70;99.90;;;;;;5022359;28;1127;-62
2022/12/03 01:35:12;;;;;;;;;;;4.70;99.90;;;;;;5029347;28;1110;-62
2022/12/03 01:37:37;;;;;;;;;;;4.60;99.90;;;;;;5022457;28;1259;-62
2022/12/03 01:40:04;;;;;;;;;;;4.70;99.90;;;;;;5019590;28;1910;-62
2022/12/03 01:42:33;;;;;;;;;;;4.70;99.90;;;;;;5009369;28;1106;-62
2022/12/03 01:45:00;;;;;;;;;;;4.70;99.90;;;;;;5010013;28;1345;-62
2022/12/03 01:47:28;;;;;;;;;;;4.70;99.90;;;;;;5021856;28;1122;-62
2022/12/03 01:49:58;;;;;;;;;;;4.90;99.90;;;;;;5017506;28;1137;-62
2022/12/03 01:52:25;;;;;;;;;;;4.80;99.90;;;;;;5009766;28;1169;-62
2022/12/03 01:54:53;;;;;;;;;;;4.90;99.90;;;;;;5008947;28;1095;-62
2022/12/03 01:57:22;;;;;;;;;;;4.80;99.90;;;;;;5009297;28;1174;-62
2022/12/03 01:59:48;;;;;;;;;;;4.80;99.90;;;;;;5029335;28;1910;-62
2022/12/03 02:02:17;;;;;;;;;;;4.70;99.90;;;;;;5015235;28;1341;-62
2022/12/03 02:04:43;;;;;;;;;;;4.70;99.90;;;;;;5009168;28;1154;-62
2022/12/03 02:07:16;;;;;;;;;;;4.70;99.90;;;;;;5013143;28;1079;-62
2022/12/03 02:09:41;;;;;;;;;;;4.70;99.90;;;;;;5008396;28;1126;-62
2022/12/03 02:12:07;;;;;;;;;;;4.70;99.90;;;;;;5009675;28;1111;-62
2022/12/03 02:14:33;;;;;;;;;;;4.70;99.90;;;;;;5012734;28;1465;-62
2022/12/03 02:16:58;;;;;;;;;;;4.70;99.90;;;;;;5022380;28;1148;-62
2022/12/03 02:19:26;;;;;;;;;;;4.70;99.90;;;;;;5028476;28;1961;-62
2022/12/03 02:21:58;;;;;;;;;;;4.70;99.90;;;;;;5022972;28;959;-62
2022/12/03 02:24:28;;;;;;;;;;;4.60;99.90;;;;;;5008052;28;1102;-62
2022/12/03 02:26:53;;;;;;;;;;;4.60;99.90;;;;;;5025156;28;1110;-62
2022/12/03 02:29:19;;;;;;;;;;;4.60;99.90;;;;;;5029240;28;1114;-62
2022/12/03 02:31:45;;;;;;;;;;;4.60;99.90;;;;;;5026334;28;1133;-62
2022/12/03 02:34:30;;;;;;;;;;;4.60;99.90;;;;;;5016789;28;1161;-62
2022/12/03 02:36:56;;;;;;;;;;;4.50;99.90;;;;;;5030953;28;1675;-62
2022/12/03 02:39:21;;;;;;;;;;;4.50;99.90;;;;;;5012116;28;1930;-62
2022/12/03 02:44:31;;;;;;;;;;;4.50;99.90;;;;;;5012573;28;1079;-62
2022/12/03 02:46:57;;;;;;;;;;;4.50;99.90;;;;;;5029446;28;1631;-62
2022/12/03 02:49:23;;;;;;;;;;;4.50;99.90;;;;;;5032861;28;1181;-62
2022/12/03 02:51:48;;;;;;;;;;;4.40;99.90;;;;;;5017972;28;1175;-62
2022/12/03 02:54:14;;;;;;;;;;;4.40;99.90;;;;;;5032516;28;1097;-62
2022/12/03 02:56:40;;;;;;;;;;;4.40;99.90;;;;;;5032622;28;1149;-62
2022/12/03 02:59:05;;;;;;;;;;;4.40;99.90;;;;;;5031005;28;1094;-62
2022/12/03 03:01:31;;;;;;;;;;;4.20;99.90;;;;;;5012174;28;1918;-62
2022/12/03 03:03:57;;;;;;;;;;;4.30;99.90;;;;;;5012566;28;1339;-62
2022/12/03 03:06:23;;;;;;;;;;;4.50;99.90;;;;;;4994516;28;1154;-61
2022/12/03 03:08:48;;;;;;;;;;;4.20;99.90;;;;;;5012126;28;1161;-62
2022/12/03 03:11:14;;;;;;;;;;;4.20;99.90;;;;;;5030090;28;1146;-62
2022/12/03 03:13:40;;;;;;;;;;;4.20;99.90;;;;;;5026074;28;1274;-62
2022/12/03 03:16:06;;;;;;;;;;;4.20;99.90;;;;;;5012222;28;1048;-62
2022/12/03 03:18:32;;;;;;;;;;;4.20;99.90;;;;;;5022650;28;1152;-62
2022/12/03 03:20:58;;;;;;;;;;;4.30;99.90;;;;;;5031421;28;1910;-62
2022/12/03 03:23:24;;;;;;;;;;;4.10;99.90;;;;;;5031993;28;1173;-62
2022/12/03 03:25:58;;;;;;;;;;;4.10;99.90;;;;;;5029332;28;1181;-62
2022/12/03 03:28:24;;;;;;;;;;;4.10;99.90;;;;;;5015323;28;1130;-62
2022/12/03 03:30:50;;;;;;;;;;;4.20;99.90;;;;;;5016460;28;1165;-62
2022/12/03 03:33:16;;;;;;;;;;;4.10;99.90;;;;;;5021145;28;1117;-62
2022/12/03 03:35:43;;;;;;;;;;;4.10;99.90;;;;;;4998201;28;1000;-62
2022/12/03 03:38:09;;;;;;;;;;;4.10;99.90;;;;;;5019979;28;965;-62
2022/12/03 03:40:35;;;;;;;;;;;4.10;99.90;;;;;;5011314;28;1976;-62
2022/12/03 03:43:01;;;;;;;;;;;4.10;99.90;;;;;;5022970;28;1187;-62
2022/12/03 03:45:27;;;;;;;;;;;4.10;99.90;;;;;;5012055;28;1275;-62
2022/12/03 03:47:53;;;;;;;;;;;4.10;99.90;;;;;;5011235;28;1083;-62
2022/12/03 03:50:19;;;;;;;;;;;4.00;99.90;;;;;;5016297;28;1118;-61
2022/12/03 03:52:45;;;;;;;;;;;4.30;99.90;;;;;;5025693;28;1157;-62
2022/12/03 03:55:11;;;;;;;;;;;4.10;99.90;;;;;;5029147;28;1142;-62
2022/12/03 03:57:37;;;;;;;;;;;4.30;99.90;;;;;;5031595;28;1118;-62
2022/12/03 04:00:04;;;;;;;;;;;4.10;99.90;;;;;;5030973;28;1898;-62
2022/12/03 04:02:31;;;;;;;;;;;4.10;99.90;;;;;;5026604;28;1559;-62
2022/12/03 04:04:57;;;;;;;;;;;4.10;99.90;;;;;;5031151;28;1255;-61
2022/12/03 04:07:23;;;;;;;;;;;4.10;99.90;;;;;;5023140;28;1051;-62
2022/12/03 04:09:48;;;;;;;;;;;4.10;99.90;;;;;;5010617;28;1114;-61
2022/12/03 04:14:58;;;;;;;;;;;4.20;99.90;;;;;;5003900;28;1478;-61
2022/12/03 04:17:24;;;;;;;;;;;4.10;99.90;;;;;;5030609;28;1126;-62
2022/12/03 04:19:49;;;;;;;;;;;4.10;99.90;;;;;;5020777;28;1910;-61
2022/12/03 04:30:41;;;;;;;;;;;4.10;99.90;;;;;;5011630;28;1197;-61
2022/12/03 04:35:51;;;;;;;;;;;4.60;99.90;;;;;;5001822;28;2074;-62
2022/12/03 04:38:17;;;;;;;;;;;4.10;99.90;;;;;;5010024;28;1202;-61
2022/12/03 04:41:02;;;;;;;;;;;4.00;99.90;;;;;;5010725;28;1906;-61
2022/12/03 04:43:30;;;;;;;;;;;4.00;99.90;;;;;;5010439;28;1075;-61
2022/12/03 04:45:55;;;;;;;;;;;4.10;99.90;;;;;;5012080;28;1583;-61
2022/12/03 04:48:21;;;;;;;;;;;4.00;99.90;;;;;;5025748;28;1170;-61
2022/12/03 04:50:47;;;;;;;;;;;4.10;99.90;;;;;;5020607;28;1227;-61
2022/12/03 04:53:12;;;;;;;;;;;4.00;99.90;;;;;;5010870;28;1029;-61
2022/12/03 04:55:38;;;;;;;;;;;4.00;99.90;;;;;;5018603;28;1156;-62
2022/12/03 04:58:03;;;;;;;;;;;4.20;99.90;;;;;;5026282;28;1101;-61
2022/12/03 05:00:29;;;;;;;;;;;4.00;99.90;;;;;;5009997;28;1922;-61
2022/12/03 05:02:55;;;;;;;;;;;4.00;99.90;;;;;;5009862;28;1174;-61
2022/12/03 05:05:35;;;;;;;;;;;3.80;99.90;;;;;;4983385;28;1324;-61
2022/12/03 05:08:01;;;;;;;;;;;3.90;99.90;;;;;;5010555;28;1279;-61
2022/12/03 05:10:27;;;;;;;;;;;3.90;99.90;;;;;;4992774;28;1087;-61
2022/12/03 05:12:52;;;;;;;;;;;4.30;99.90;;;;;;5012356;28;1146;-61
2022/12/03 05:15:18;;;;;;;;;;;3.90;99.90;;;;;;5021015;28;1641;-61
2022/12/03 05:17:43;;;;;;;;;;;3.90;99.90;;;;;;5012460;28;1106;-61
2022/12/03 05:22:53;;;;;;;;;;;3.90;99.90;;;;;;5010525;28;1137;-61
2022/12/03 05:25:19;;;;;;;;;;;3.90;99.90;;;;;;5010350;28;1182;-61
2022/12/03 05:27:45;;;;;;;;;;;3.90;99.90;;;;;;5009196;28;1107;-61
2022/12/03 05:30:10;;;;;;;;;;;3.90;99.90;;;;;;5010085;28;1103;-61
2022/12/03 05:32:37;;;;;;;;;;;3.90;99.90;;;;;;5023172;28;1196;-61
2022/12/03 05:35:03;;;;;;;;;;;3.90;99.90;;;;;;5008947;28;1159;-61
2022/12/03 05:37:28;;;;;;;;;;;3.90;99.90;;;;;;5015697;28;1162;-61
2022/12/03 05:39:54;;;;;;;;;;;4.10;99.90;;;;;;5021703;28;1923;-61
2022/12/03 05:45:04;;;;;;;;;;;4.00;99.90;;;;;;5011337;28;1382;-61
2022/12/03 05:47:29;;;;;;;;;;;4.00;99.90;;;;;;5025370;28;1204;-61
2022/12/03 05:49:55;;;;;;;;;;;3.90;99.90;;;;;;5022424;28;1110;-61
2022/12/03 05:52:20;;;;;;;;;;;4.00;99.90;;;;;;5009869;28;1162;-61
2022/12/03 05:54:46;;;;;;;;;;;4.20;99.90;;;;;;4994685;28;1103;-61
2022/12/03 05:57:12;;;;;;;;;;;4.00;99.90;;;;;;5009813;28;1221;-62
2022/12/03 05:59:37;;;;;;;;;;;4.00;99.90;;;;;;5024056;28;1914;-62
2022/12/03 06:02:03;;;;;;;;;;;4.00;99.90;;;;;;5017214;28;1583;-61
2022/12/03 06:04:28;;;;;;;;;;;4.00;99.90;;;;;;4991620;28;1249;-61
2022/12/03 06:06:54;;;;;;;;;;;4.00;99.90;;;;;;5017148;28;1258;-62
2022/12/03 06:09:20;;;;;;;;;;;4.00;99.90;;;;;;5010301;28;1106;-61
2022/12/03 06:11:45;;;;;;;;;;;4.10;99.90;;;;;;5029384;28;1095;-61
2022/12/03 06:14:11;;;;;;;;;;;3.90;99.90;;;;;;5020057;28;1334;-61
2022/12/03 06:16:36;;;;;;;;;;;3.90;99.90;;;;;;5028588;28;1102;-61
2022/12/03 06:19:02;;;;;;;;;;;3.90;99.90;;;;;;5029181;28;1121;-61
2022/12/03 06:21:28;;;;;;;;;;;3.90;99.90;;;;;;5025780;28;1910;-61
2022/12/03 06:23:53;;;;;;;;;;;3.90;99.90;;;;;;5008519;28;1123;-62
2022/12/03 06:26:19;;;;;;;;;;;3.90;99.90;;;;;;5009570;28;1170;-62
2022/12/03 06:28:46;;;;;;;;;;;3.90;99.90;;;;;;5009123;28;1170;-62
2022/12/03 06:31:12;;;;;;;;;;;3.80;99.90;;;;;;5016078;28;1081;-61
2022/12/03 06:33:38;;;;;;;;;;;3.90;99.90;;;;;;5024191;28;1127;-62
2022/12/03 06:36:03;;;;;;;;;;;3.80;99.90;;;;;;5028943;28;1075;-62
2022/12/03 06:38:29;;;;;;;;;;;3.80;99.90;;;;;;5014003;28;1084;-62
2022/12/03 06:40:55;;;;;;;;;;;3.80;99.90;;;;;;5008893;28;1973;-62
2022/12/03 06:43:20;;;;;;;;;;;3.90;99.90;;;;;;5022367;28;1213;-61
2022/12/03 06:45:46;;;;;;;;;;;3.70;99.90;;;;;;5019403;28;1571;-61
2022/12/03 06:48:12;;;;;;;;;;;3.70;99.90;;;;;;5009077;28;1127;-61
2022/12/03 06:50:37;;;;;;;;;;;3.70;99.90;;;;;;5007508;28;1186;-62
2022/12/03 06:53:03;;;;;;;;;;;3.70;99.90;;;;;;5009028;28;1071;-62
2022/12/03 06:55:28;;;;;;;;;;;3.70;99.90;;;;;;5009283;28;1107;-61
2022/12/03 06:57:54;;;;;;;;;;;3.70;99.90;;;;;;5007922;28;1106;-61
2022/12/03 07:00:20;;;;;;;;;;;3.70;99.90;;;;;;5016476;28;1910;-61
2022/12/03 07:02:45;;;;;;;;;;;3.70;99.90;;;;;;5010849;28;1290;-61
2022/12/03 07:05:12;;;;;;;;;;;3.70;99.90;;;;;;5007814;28;1213;-62
2022/12/03 07:07:37;;;;;;;;;;;3.70;99.90;;;;;;5009699;28;1300;-62
2022/12/03 07:10:03;;;;;;;;;;;3.70;99.90;;;;;;5008785;28;1237;-62
2022/12/03 07:12:29;;;;;;;;;;;3.70;99.90;;;;;;5022290;28;1110;-62
2022/12/03 07:14:55;;;;;;;;;;;3.80;99.90;;;;;;5020599;28;1425;-62
2022/12/03 07:17:20;;;;;;;;;;;3.70;99.90;;;;;;5014765;28;1152;-62
2022/12/03 07:19:46;;;;;;;;;;;3.70;99.90;;;;;;5010225;28;1934;-62
2022/12/03 07:22:12;;;;;;;;;;;3.70;99.90;;;;;;5032286;28;1157;-62
2022/12/03 07:24:37;;;;;;;;;;;3.70;99.90;;;;;;5019295;28;1193;-62
2022/12/03 07:27:03;;;;;;;;;;;3.60;99.90;;;;;;5011501;28;1269;-62
2022/12/03 07:29:28;;;;;;;;;;;3.60;99.90;;;;;;4999911;28;1277;-62
2022/12/03 07:31:54;;;;;;;;;;;3.60;99.90;;;;;;5025342;28;1068;-62
2022/12/03 07:34:20;;;;;;;;;;;3.60;99.90;;;;;;5017564;28;1161;-62
2022/12/03 07:36:46;;;;;;;;;;;3.60;99.90;;;;;;5015004;28;1146;-62
2022/12/03 07:39:11;;;;;;;;;;;3.60;99.90;;;;;;5014024;28;1133;-62
2022/12/03 07:41:37;;;;;;;;;;;3.60;99.90;;;;;;5012576;28;1918;-62
2022/12/03 07:44:03;;;;;;;;;;;3.60;99.90;;;;;;5011082;28;1245;-63
2022/12/03 07:46:29;;;;;;;;;;;3.60;99.90;;;;;;5011481;28;1333;-62
2022/12/03 07:48:54;;;;;;;;;;;3.60;99.90;;;;;;5011126;28;1230;-62
2022/12/03 07:51:20;;;;;;;;;;;3.60;99.90;;;;;;5021030;28;1240;-62
2022/12/03 07:53:46;;;;;;;;;;;3.60;99.90;;;;;;5013512;28;1118;-63
2022/12/03 07:56:11;;;;;;;;;;;3.60;99.90;;;;;;5011163;28;1245;-63
2022/12/03 07:58:37;;;;;;;;;;;3.70;99.90;;;;;;5012905;28;1172;-63
2022/12/03 08:01:03;;;;;;;;;;;3.60;99.90;;;;;;5013440;28;1949;-62
2022/12/03 08:03:28;;;;;;;;;;;3.60;99.90;;;;;;5011351;28;1290;-62
2022/12/03 08:05:54;;;;;;;;;;;3.60;99.90;;;;;;5011637;28;1160;-63
2022/12/03 08:08:20;;;;;;;;;;;3.50;99.90;;;;;;5010746;28;1079;-62
2022/12/03 08:10:45;;;;;;;;;;;3.60;99.90;;;;;;5010892;28;1119;-63
2022/12/03 08:13:13;;;;;;;;;;;3.60;99.90;;;;;;4995237;28;1127;-63
2022/12/03 08:15:39;;;;;;;;;;;3.50;99.90;;;;;;5012191;28;1626;-62
2022/12/03 08:18:13;;;;;;;;;;;3.50;99.90;;;;;;5010842;28;1165;-63
2022/12/03 08:20:39;;;;;;;;;;;3.60;99.90;;;;;;5024855;28;1902;-62
2022/12/03 08:23:08;;;;;;;;;;;3.60;99.90;;;;;;5014615;28;1028;-62
2022/12/03 08:25:34;;;;;;;;;;;3.60;99.90;;;;;;5011250;28;1162;-63
2022/12/03 08:28:09;;;;;;;;;;;3.70;99.90;;;;;;5010792;28;1220;-62
2022/12/03 08:30:35;;;;;;;;;;;3.60;99.90;;;;;;5013074;28;1165;-62
2022/12/03 08:33:00;;;;;;;;;;;3.60;99.90;;;;;;5021203;28;1170;-62
2022/12/03 08:35:28;;;;;;;;;;;3.50;99.90;;;;;;5010907;28;1016;-63
2022/12/03 08:37:56;;;;;;;;;;;3.60;99.90;;;;;;5010454;28;1061;-62
2022/12/03 08:40:25;;;;;;;;;;;3.60;99.90;;;;;;5010482;28;2356;-62
2022/12/03 08:42:50;;;;;;;;;;;3.50;99.90;;;;;;5010301;28;1126;-62
2022/12/03 08:45:29;;;;;;;;;;;3.50;99.90;;;;;;4996895;28;1346;-62
2022/12/03 08:47:55;;;;;;;;;;;3.50;99.90;;;;;;5010636;28;1133;-63
2022/12/03 08:50:23;;;;;;;;;;;3.50;99.90;;;;;;4997465;28;1115;-63
2022/12/03 08:52:48;;;;;;;;;;;3.50;99.90;;;;;;5030604;28;1106;-63
2022/12/03 08:55:30;;;;;;;;;;;3.50;99.90;;;;;;5028590;28;1143;-62
2022/12/03 08:57:57;;;;;;;;;;;3.40;99.90;;;;;;5029687;28;1165;-62
2022/12/03 09:00:23;;;;;;;;;;;3.50;99.90;;;;;;5013787;28;1910;-63
2022/12/03 09:02:50;;;;;;;;;;;3.50;99.90;;;;;;5009596;28;1410;-62
2022/12/03 09:05:19;;;;;;;;;;;3.50;99.90;;;;;;4996538;28;1379;-63
2022/12/03 09:07:44;;;;;;;;;;;3.50;99.90;;;;;;4993892;28;1185;-62
2022/12/03 09:10:10;;;;;;;;;;;3.50;99.90;;;;;;5029794;28;1128;-62
2022/12/03 09:12:36;;;;;;;;;;;3.60;99.90;;;;;;5012460;28;1116;-62
2022/12/03 09:15:01;;;;;;;;;;;3.60;99.90;;;;;;5013844;28;1512;-63
2022/12/03 09:17:27;;;;;;;;;;;3.60;99.90;;;;;;5010073;28;1110;-62
2022/12/03 09:19:53;;;;;;;;;;;3.60;99.90;;;;;;4991830;28;1971;-63
2022/12/03 09:22:19;;;;;;;;;;;3.60;99.90;;;;;;5024460;28;1107;-63
2022/12/03 09:24:44;;;;;;;;;;;3.50;99.90;;;;;;5014354;28;1432;-63
2022/12/03 09:27:10;;;;;;;;;;;3.50;99.90;;;;;;5011566;28;1229;-62
2022/12/03 09:29:35;;;;;;;;;;;3.50;99.90;;;;;;5009609;28;1265;-63
2022/12/03 09:32:01;;;;;;;;;;;3.50;99.90;;;;;;5011042;28;1181;-63
2022/12/03 09:34:27;;;;;;;;;;;3.50;99.90;;;;;;5000771;28;1272;-63
2022/12/03 09:36:53;;;;;;;;;;;3.50;99.90;;;;;;5010607;28;1287;-63
2022/12/03 09:39:18;;;;;;;;;;;3.50;99.90;;;;;;5004957;28;3079;-63
2022/12/03 09:41:44;;;;;;;;;;;3.50;99.90;;;;;;5008553;28;3098;-63
2022/12/03 09:44:10;;;;;;;;;;;3.50;99.90;;;;;;5008604;28;1225;-63
2022/12/03 09:46:36;;;;;;;;;;;3.50;99.90;;;;;;5005768;28;3050;-63
2022/12/03 09:49:04;;;;;;;;;;;3.60;99.90;;;;;;5010589;28;1222;-63
2022/12/03 09:51:31;;;;;;;;;;;3.50;99.90;;;;;;5023410;28;1574;-62
2022/12/03 09:53:59;;;;;;;;;;;3.60;99.90;;;;;;5010358;28;1223;-63
2022/12/03 09:56:25;;;;;;;;;;;3.60;99.90;;;;;;5013601;28;1094;-63
2022/12/03 09:58:51;;;;;;;;;;;3.60;99.90;;;;;;5022342;28;1142;-66
2022/12/03 10:01:20;;;;;;;;;;;3.70;99.90;;;;;;5010614;28;1906;-62
2022/12/03 10:03:48;;;;;;;;;;;3.70;99.90;;;;;;5028433;28;1336;-62
2022/12/03 10:06:15;;;;;;;;;;;3.70;99.90;;;;;;5009725;28;1070;-62
2022/12/03 10:08:41;;;;;;;;;;;3.90;99.90;;;;;;5008621;28;1091;-62
2022/12/03 10:11:07;;;;;;;;;;;3.70;99.90;;;;;;5012034;28;1106;-62
2022/12/03 10:13:34;;;;;;;;;;;3.80;99.90;;;;;;5020430;28;1286;-63
2022/12/03 10:16:00;;;;;;;;;;;3.80;99.90;;;;;;5008279;28;1252;-62
2022/12/03 10:18:28;;;;;;;;;;;3.60;99.90;;;;;;5008940;28;1217;-63
2022/12/03 10:20:54;;;;;;;;;;;3.90;99.90;;;;;;5009266;28;1983;-62
2022/12/03 10:23:22;;;;;;;;;;;3.90;99.90;;;;;;5000708;28;1204;-63
2022/12/03 10:25:49;;;;;;;;;;;3.90;99.90;;;;;;5010604;28;1114;-63
2022/12/03 10:28:25;;;;;;;;;;;3.90;99.90;;;;;;5018956;28;1161;-63
2022/12/03 10:30:54;;;;;;;;;;;4.00;99.90;;;;;;5009048;28;1114;-62
2022/12/03 10:33:19;;;;;;;;;;;4.00;99.90;;;;;;5020973;28;1099;-63
2022/12/03 10:35:45;;;;;;;;;;;4.00;99.90;;;;;;5016602;28;1169;-62
2022/12/03 10:38:15;;;;;;;;;;;4.10;99.90;;;;;;5003979;28;3250;-62
2022/12/03 10:40:40;;;;;;;;;;;4.10;99.90;;;;;;5005940;28;3103;-62
2022/12/03 10:43:14;;;;;;;;;;;4.10;99.90;;;;;;5009138;28;3209;-64
2022/12/03 10:45:41;;;;;;;;;;;4.20;99.90;;;;;;5008247;28;3137;-61
2022/12/03 10:48:11;;;;;;;;;;;4.20;99.90;;;;;;5007689;28;3406;-62
2022/12/03 10:50:37;;;;;;;;;;;4.20;99.90;;;;;;5014990;28;1578;-62
2022/12/03 10:53:03;;;;;;;;;;;4.20;99.90;;;;;;5012724;28;3486;-61
2022/12/03 10:55:33;;;;;;;;;;;3.80;99.90;;;;;;4992401;28;1202;-62
2022/12/03 10:57:58;;;;;;;;;;;4.30;99.90;;;;;;5012826;28;1418;-61
2022/12/03 11:00:24;;;;;;;;;;;4.40;99.90;;;;;;5013176;28;1967;-61
2022/12/03 11:02:50;;;;;;;;;;;4.30;99.90;;;;;;5011797;28;1294;-62
2022/12/03 11:05:16;;;;;;;;;;;4.40;99.90;;;;;;5011310;28;3130;-61
2022/12/03 11:07:42;;;;;;;;;;;4.40;99.90;;;;;;5012105;28;1159;-62
2022/12/03 11:10:12;;;;;;;;;;;4.50;99.90;;;;;;5011811;28;1237;-61
2022/12/03 11:12:38;;;;;;;;;;;4.50;99.90;;;;;;5009040;28;1265;-61
2022/12/03 11:15:05;;;;;;;;;;;4.50;99.90;;;;;;5015131;28;1542;-61
2022/12/03 11:17:47;;;;;;;;;;;4.60;99.90;;;;;;5026165;28;1095;-64
2022/12/03 11:20:19;;;;;;;;;;;4.70;99.90;;;;;;5032186;28;1914;-64
2022/12/03 11:22:47;;;;;;;;;;;4.90;99.90;;;;;;5031871;28;1117;-64
2022/12/03 11:25:40;;;;;;;;;;;4.90;99.90;;;;;;4998033;28;1167;-64
2022/12/03 11:28:09;;;;;;;;;;;5.10;99.90;;;;;;5020233;28;1878;-64
2022/12/03 11:30:48;;;;;;;;;;;5.10;99.90;;;;;;5012374;28;1161;-64
2022/12/03 11:33:21;;;;;;;;;;;5.20;99.90;;;;;;5018780;28;1726;-64
2022/12/03 11:36:05;;;;;;;;;;;5.20;99.90;;;;;;5011951;28;1315;-64
2022/12/03 11:38:39;;;;;;;;;;;5.30;99.90;;;;;;5011619;28;1316;-64
2022/12/03 11:41:07;;;;;;;;;;;5.30;99.90;;;;;;5011877;28;1910;-64
2022/12/03 11:43:51;;;;;;;;;;;5.40;99.90;;;;;;5011959;28;1275;-64
2022/12/03 11:46:19;;;;;;;;;;;5.40;99.90;;;;;;5016555;28;1544;-64
2022/12/03 11:48:46;;;;;;;;;;;5.40;99.90;;;;;;5015341;28;1149;-64
2022/12/03 11:51:13;;;;;;;;;;;5.50;99.90;;;;;;5004765;28;1084;-64
2022/12/03 11:53:39;;;;;;;;;;;5.50;99.90;;;;;;5015956;28;1164;-62
2022/12/03 11:56:07;;;;;;;;;;;5.50;99.90;;;;;;5011795;28;1202;-62
2022/12/03 11:58:35;;;;;;;;;;;5.60;99.90;;;;;;5011279;28;1225;-62
2022/12/03 12:01:01;;;;;;;;;;;5.50;99.90;;;;;;5007640;28;1902;-62
2022/12/03 12:03:28;;;;;;;;;;;5.50;99.90;;;;;;5012165;28;1266;-62
2022/12/03 12:06:02;;;;;;;;;;;5.40;99.90;;;;;;5011523;28;1281;-62
2022/12/03 12:08:28;;;;;;;;;;;5.30;99.90;;;;;;5009913;28;1228;-62
2022/12/03 12:10:53;;;;;;;;;;;5.30;99.90;;;;;;5025837;28;1114;-62
2022/12/03 12:13:26;;;;;;;;;;;5.30;99.90;;;;;;5028861;28;1172;-62
2022/12/03 12:15:52;;;;;;;;;;;5.30;99.90;;;;;;5006210;28;1125;-62
2022/12/03 12:18:35;;;;;;;;;;;5.20;99.90;;;;;;5019959;28;1107;-62
2022/12/03 12:21:19;;;;;;;;;;;5.20;99.90;;;;;;5013195;28;1930;-62
2022/12/03 12:23:45;;;;;;;;;;;5.10;99.90;;;;;;5021507;28;1141;-62
2022/12/03 12:26:11;;;;;;;;;;;5.10;99.90;;;;;;5011229;28;1214;-62
2022/12/03 12:28:36;;;;;;;;;;;5.00;99.90;;;;;;5023434;28;1175;-62
2022/12/03 12:31:07;;;;;;;;;;;5.00;99.90;;;;;;5029050;28;1193;-61
2022/12/03 12:33:34;;;;;;;;;;;5.00;99.90;;;;;;5017545;28;1160;-62
2022/12/03 12:36:04;;;;;;;;;;;4.90;99.90;;;;;;5016896;28;1218;-62
2022/12/03 12:38:29;;;;;;;;;;;4.90;99.90;;;;;;5016197;28;1043;-62
2022/12/03 12:40:56;;;;;;;;;;;4.90;99.90;;;;;;5010775;28;1938;-62
2022/12/03 12:43:23;;;;;;;;;;;5.00;99.90;;;;;;4993051;28;1080;-62
2022/12/03 12:45:49;;;;;;;;;;;4.90;99.90;;;;;;5020622;28;1515;-62
2022/12/03 12:48:19;;;;;;;;;;;4.90;99.90;;;;;;5010807;28;1102;-62
2022/12/03 12:50:45;;;;;;;;;;;5.00;99.90;;;;;;5018165;28;1248;-62
2022/12/03 12:53:20;;;;;;;;;;;5.10;99.90;;;;;;5020239;28;1028;-62
2022/12/03 12:55:47;;;;;;;;;;;5.00;99.90;;;;;;5014365;28;1153;-61
2022/12/03 12:58:15;;;;;;;;;;;5.00;99.90;;;;;;5009987;28;1170;-62
2022/12/03 13:00:41;;;;;;;;;;;5.00;99.90;;;;;;5010122;28;1914;-62
2022/12/03 13:03:07;;;;;;;;;;;5.00;99.90;;;;;;5025781;28;1312;-62
2022/12/03 13:05:37;;;;;;;;;;;5.00;99.90;;;;;;5030280;28;1157;-62
2022/12/03 13:08:14;;;;;;;;;;;4.80;99.90;;;;;;5029744;28;1050;-62
2022/12/03 13:10:40;;;;;;;;;;;4.90;99.90;;;;;;5002519;28;1233;-61
2022/12/03 13:13:11;;;;;;;;;;;4.80;99.90;;;;;;5026358;28;1187;-62
2022/12/03 13:15:41;;;;;;;;;;;4.70;99.90;;;;;;4994547;28;1564;-62
2022/12/03 13:18:18;;;;;;;;;;;4.70;99.90;;;;;;5009791;28;1122;-61
2022/12/03 13:20:44;;;;;;;;;;;4.60;99.90;;;;;;5010679;28;1975;-61
2022/12/03 13:23:21;;;;;;;;;;;4.60;99.90;;;;;;5010017;28;1138;-61
2022/12/03 13:25:50;;;;;;;;;;;4.60;99.90;;;;;;5009551;28;1185;-62
2022/12/03 13:28:16;;;;;;;;;;;4.60;99.90;;;;;;5009814;28;1157;-61
2022/12/03 13:30:42;;;;;;;;;;;4.50;99.90;;;;;;5024763;28;1087;-61
2022/12/03 13:33:24;;;;;;;;;;;4.40;99.90;;;;;;5010261;28;1315;-61
2022/12/03 13:35:52;;;;;;;;;;;4.40;99.90;;;;;;5010798;28;1119;-61
2022/12/03 13:38:18;;;;;;;;;;;4.30;99.90;;;;;;5008666;28;1123;-61
2022/12/03 13:40:43;;;;;;;;;;;4.30;99.90;;;;;;5009449;28;1980;-62
2022/12/03 13:43:10;;;;;;;;;;;4.30;99.90;;;;;;5010069;28;1142;-62
2022/12/03 13:45:37;;;;;;;;;;;4.40;99.90;;;;;;5004761;28;3595;-61
2022/12/03 13:48:23;;;;;;;;;;;4.30;99.90;;;;;;5009631;28;1106;-61
2022/12/03 13:50:50;;;;;;;;;;;4.30;99.90;;;;;;5018040;28;2054;-61
2022/12/03 13:53:23;;;;;;;;;;;4.30;99.90;;;;;;5021436;28;1137;-61
2022/12/03 13:56:02;;;;;;;;;;;4.30;99.90;;;;;;5018975;28;1127;-61
2022/12/03 13:58:28;;;;;;;;;;;4.20;99.90;;;;;;5029181;28;1113;-61
2022/12/03 14:00:53;;;;;;;;;;;4.10;99.90;;;;;;5026897;28;1971;-61
2022/12/03 14:03:20;;;;;;;;;;;4.10;99.90;;;;;;5013680;28;1231;-61
2022/12/03 14:05:45;;;;;;;;;;;4.00;99.90;;;;;;5029144;28;1173;-61
2022/12/03 14:08:11;;;;;;;;;;;4.00;99.90;;;;;;5019014;28;3550;-61
2022/12/03 14:10:36;;;;;;;;;;;4.00;99.90;;;;;;5009354;28;3570;-61
2022/12/03 14:13:02;;;;;;;;;;;3.90;99.90;;;;;;5008531;28;1416;-61
2022/12/03 14:15:28;;;;;;;;;;;3.90;99.90;;;;;;5012046;28;3486;-61
2022/12/03 14:17:54;;;;;;;;;;;4.00;99.90;;;;;;5009372;28;1142;-61
2022/12/03 14:20:20;;;;;;;;;;;3.90;99.90;;;;;;5009133;28;1974;-61
2022/12/03 14:22:46;;;;;;;;;;;3.90;99.90;;;;;;5015876;28;1223;-61
2022/12/03 14:25:12;;;;;;;;;;;3.80;99.90;;;;;;5028765;28;1091;-61
2022/12/03 14:27:37;;;;;;;;;;;3.80;99.90;;;;;;5011998;28;3077;-61
2022/12/03 14:30:03;;;;;;;;;;;3.80;99.90;;;;;;5008984;28;1147;-61
2022/12/03 14:32:29;;;;;;;;;;;3.70;99.90;;;;;;5026196;28;1073;-61
2022/12/03 14:34:55;;;;;;;;;;;3.70;99.90;;;;;;5011886;28;1293;-61
2022/12/03 14:37:21;;;;;;;;;;;3.70;99.90;;;;;;5014777;28;1261;-61
2022/12/03 14:39:46;;;;;;;;;;;3.60;99.90;;;;;;5011628;28;1906;-61
2022/12/03 14:42:12;;;;;;;;;;;3.60;99.90;;;;;;5008411;28;3928;-61
2022/12/03 14:44:39;;;;;;;;;;;3.50;99.90;;;;;;5013123;28;3991;-61
2022/12/03 14:47:05;;;;;;;;;;;3.50;99.90;;;;;;5013756;28;2975;-61
2022/12/03 14:49:31;;;;;;;;;;;3.40;99.90;;;;;;5011712;28;2149;-61
2022/12/03 14:51:58;;;;;;;;;;;3.40;99.90;;;;;;5012249;28;1633;-61
2022/12/03 14:54:23;;;;;;;;;;;3.40;99.90;;;;;;5011971;28;1910;-61
2022/12/03 14:56:49;;;;;;;;;;;3.40;99.90;;;;;;5026570;28;1138;-61
2022/12/03 14:59:15;;;;;;;;;;;3.30;99.90;;;;;;5014408;28;1281;-60
2022/12/03 15:01:40;;;;;;;;;;;3.40;99.90;;;;;;5024020;28;1917;-61
2022/12/03 15:04:06;;;;;;;;;;;3.60;99.90;;;;;;5022985;28;1945;-61